Time;durP1;ratioP1;P1;durP2;ratioP2;P2;SDS_P1;SDS_P2;PMS_P1;PMS_P2;Temp;Humidity;BMP_temperature;BMP_pressure;BME280_temperature;BME280_humidity;BME280_pressure;Samples;Min_cycle;Max_cycle;Signal;HPM_P1;HPM_P2
2022/12/27 00:02:02;;;;;;;4.90;2.60;;;19.40;55.70;;;;;;6257355;28;20700;-74
2022/12/27 00:05:04;;;;;;;4.90;2.60;;;19.40;55.70;;;;;;6269514;28;20029;-75
2022/12/27 00:08:04;;;;;;;4.38;2.50;;;19.30;55.60;;;;;;6250397;28;20075;-74
2022/12/27 00:11:11;;;;;;;3.88;2.15;;;19.40;55.70;;;;;;6247056;28;20025;-74
2022/12/27 00:14:12;;;;;;;3.83;2.25;;;19.40;55.70;;;;;;6268788;28;20025;-74
2022/12/27 00:17:12;;;;;;;3.33;2.08;;;19.40;55.70;;;;;;6258773;28;20048;-74
2022/12/27 00:20:13;;;;;;;2.92;2.20;;;19.30;55.60;;;;;;6258223;28;20164;-74
2022/12/27 00:23:13;;;;;;;3.95;2.20;;;19.30;55.60;;;;;;6263745;28;20029;-74
2022/12/27 00:26:17;;;;;;;3.13;2.10;;;19.40;55.60;;;;;;6267950;28;20028;-74
2022/12/27 00:29:18;;;;;;;3.03;2.03;;;19.40;55.60;;;;;;6245999;28;20376;-74
2022/12/27 00:32:18;;;;;;;2.53;1.85;;;19.30;55.60;;;;;;6253758;28;20032;-74
2022/12/27 00:35:19;;;;;;;3.22;2.08;;;19.40;55.60;;;;;;6270716;28;20028;-74
2022/12/27 00:38:20;;;;;;;3.17;2.15;;;19.40;55.60;;;;;;6252980;28;20412;-74
2022/12/27 00:41:21;;;;;;;2.67;1.95;;;19.40;55.70;;;;;;6245577;28;20049;-74
2022/12/27 00:44:22;;;;;;;3.05;2.10;;;19.30;55.60;;;;;;6251779;28;20040;-74
2022/12/27 00:47:22;;;;;;;3.85;1.88;;;19.30;55.60;;;;;;6251640;28;20032;-74
2022/12/27 00:50:23;;;;;;;2.78;1.77;;;19.40;55.70;;;;;;6269817;28;20049;-74
2022/12/27 00:53:24;;;;;;;2.97;1.95;;;19.30;55.60;;;;;;6252922;28;20026;-74
2022/12/27 00:56:27;;;;;;;2.83;1.88;;;19.30;55.60;;;;;;6245333;28;20021;-75
2022/12/27 00:59:28;;;;;;;3.28;2.10;;;19.30;55.60;;;;;;6268184;28;20033;-74
2022/12/27 01:02:29;;;;;;;2.90;2.10;;;19.40;55.60;;;;;;6261933;28;20492;-74
2022/12/27 01:05:29;;;;;;;3.17;1.98;;;19.40;55.60;;;;;;6243815;28;20017;-74
2022/12/27 01:08:30;;;;;;;2.50;1.73;;;19.40;55.60;;;;;;6257911;28;20040;-74
2022/12/27 01:11:32;;;;;;;3.03;2.05;;;19.40;55.60;;;;;;6255223;28;20036;-74
2022/12/27 01:14:33;;;;;;;3.17;2.00;;;19.30;55.60;;;;;;6265299;28;20376;-75
2022/12/27 01:17:33;;;;;;;2.35;1.70;;;19.30;55.50;;;;;;6262600;28;20018;-75
2022/12/27 01:20:36;;;;;;;2.92;1.52;;;19.40;55.60;;;;;;6244579;28;20029;-74
2022/12/27 01:23:38;;;;;;;3.47;1.83;;;19.30;56.20;;;;;;6252163;28;20224;-75
2022/12/27 01:26:39;;;;;;;2.65;1.73;;;19.40;55.60;;;;;;6269592;28;20032;-74
2022/12/27 01:29:39;;;;;;;4.22;1.75;;;19.30;55.60;;;;;;6247938;28;20021;-74
2022/12/27 01:32:40;;;;;;;2.42;1.67;;;19.30;55.60;;;;;;6247332;28;20525;-74
2022/12/27 01:35:40;;;;;;;2.00;1.58;;;19.30;55.60;;;;;;6267881;28;20056;-75
2022/12/27 01:38:42;;;;;;;2.45;1.70;;;19.30;55.60;;;;;;6257579;28;20033;-74
2022/12/27 01:45:24;;;;;;;3.67;1.88;;;19.30;55.60;;;;;;6244941;28;20057;-75
2022/12/27 01:48:24;;;;;;;1.75;1.38;;;19.30;55.50;;;;;;6252204;28;20105;-75
2022/12/27 01:51:25;;;;;;;2.33;1.50;;;19.40;55.60;;;;;;6267683;28;20076;-75
2022/12/27 01:54:25;;;;;;;2.55;1.70;;;19.30;55.50;;;;;;6252128;28;20495;-74
2022/12/27 01:57:26;;;;;;;3.95;1.60;;;19.40;55.60;;;;;;6243245;28;20049;-74
2022/12/27 02:00:27;;;;;;;2.63;1.50;;;19.40;55.50;;;;;;6266130;28;20033;-74
2022/12/27 02:03:33;;;;;;;2.20;1.38;;;19.40;55.50;;;;;;6261271;28;20021;-75
2022/12/27 02:06:36;;;;;;;1.80;1.35;;;19.40;55.60;;;;;;6239735;28;20499;-74
2022/12/27 02:09:50;;;;;;;2.88;1.63;;;19.40;55.50;;;;;;6259003;28;20108;-74
2022/12/27 02:12:51;;;;;;;3.47;2.08;;;19.30;55.40;;;;;;6243517;28;20029;-75
2022/12/27 02:15:51;;;;;;;3.72;1.80;;;19.40;55.40;;;;;;6268744;28;20033;-75
2022/12/27 02:18:52;;;;;;;4.57;1.95;;;19.40;55.40;;;;;;6259728;28;20033;-74
2022/12/27 02:22:17;;;;;;;2.03;1.35;;;19.30;55.40;;;;;;6242951;28;20025;-73
2022/12/27 02:25:49;;;;;;;2.55;1.58;;;19.40;55.40;;;;;;6250389;28;20029;-75
2022/12/27 02:28:59;;;;;;;2.53;1.70;;;19.30;55.30;;;;;;6245098;28;20049;-74
2022/12/27 02:32:11;;;;;;;2.30;1.58;;;19.40;55.40;;;;;;6248179;28;20104;-74
2022/12/27 02:35:35;;;;;;;2.75;1.40;;;19.40;55.40;;;;;;6264929;28;20114;-73
2022/12/27 02:38:41;;;;;;;2.10;1.50;;;19.40;55.40;;;;;;6269349;28;20483;-75
2022/12/27 03:03:49;;;;;;;2.47;1.40;;;19.40;55.40;;;;;;6272879;28;20500;-74
2022/12/27 03:07:08;;;;;;;2.33;1.30;;;19.40;55.40;;;;;;6222740;28;20038;-75
2022/12/27 03:17:30;;;;;;;1.45;1.10;;;19.30;55.30;;;;;;6223475;28;20520;-75
2022/12/27 03:27:20;;;;;;;2.55;1.30;;;19.40;55.30;;;;;;6246264;28;20025;-74
2022/12/27 03:33:41;;;;;;;3.13;1.40;;;19.40;55.30;;;;;;6271893;28;20025;-76
2022/12/27 03:40:36;;;;;;;1.90;1.30;;;19.40;55.30;;;;;;6251864;28;20041;-76
2022/12/27 03:43:38;;;;;;;1.52;1.10;;;19.40;55.30;;;;;;6248489;28;20033;-75
2022/12/27 03:46:42;;;;;;;1.60;1.08;;;19.40;55.30;;;;;;6262129;28;20029;-76
2022/12/27 03:50:01;;;;;;;1.52;0.98;;;19.40;55.30;;;;;;6269918;28;20044;-76
2022/12/27 03:53:11;;;;;;;2.53;1.13;;;19.30;55.10;;;;;;6245521;28;20068;-75
2022/12/27 03:56:11;;;;;;;1.60;0.93;;;19.40;55.20;;;;;;6259772;28;20476;-76
2022/12/27 03:59:12;;;;;;;1.20;0.85;;;19.40;55.20;;;;;;6269887;28;20036;-76
2022/12/27 04:02:13;;;;;;;2.55;1.10;;;19.30;55.10;;;;;;6249955;28;20376;-75
2022/12/27 04:05:14;;;;;;;3.15;1.10;;;19.40;55.20;;;;;;6249218;28;20021;-76
2022/12/27 04:34:47;;;;;;;0.98;0.80;;;19.40;55.20;;;;;;6270481;28;20036;-75
2022/12/27 04:37:48;;;;;;;1.40;1.00;;;19.40;55.10;;;;;;6249393;28;20542;-75
2022/12/27 04:57:39;;;;;;;1.70;1.05;;;19.40;55.10;;;;;;6262082;28;20029;-75
2022/12/27 05:04:00;;;;;;;1.30;0.70;;;19.40;55.00;;;;;;6245154;28;20057;-75
2022/12/27 05:13:58;;;;;;;1.55;0.80;;;19.40;55.00;;;;;;6255208;28;20041;-76
2022/12/27 05:13:59;;;;;;;1.85;1.10;;;19.40;54.90;;;;;;6268907;28;20119;-76
2022/12/27 05:17:00;;;;;;;1.05;0.70;;;19.30;54.90;;;;;;6260454;28;20033;-76
2022/12/27 05:20:00;;;;;;;1.85;1.10;;;19.30;54.80;;;;;;6244701;28;20065;-74
2022/12/27 05:26:22;;;;;;;2.67;0.75;;;19.40;54.90;;;;;;6267165;28;20535;-75
2022/12/27 05:29:22;;;;;;;0.98;0.80;;;19.40;54.80;;;;;;6244625;28;20025;-75
2022/12/27 05:32:23;;;;;;;1.52;1.00;;;19.30;54.80;;;;;;6253192;28;20087;-76
2022/12/27 05:35:24;;;;;;;1.23;0.90;;;19.30;54.70;;;;;;6268208;28;20032;-76
2022/12/27 05:38:24;;;;;;;1.23;0.88;;;19.30;54.70;;;;;;6241824;28;20069;-76
2022/12/27 05:41:25;;;;;;;1.48;0.90;;;19.40;54.80;;;;;;6221143;28;20030;-76
2022/12/27 05:44:26;;;;;;;1.48;0.80;;;19.30;54.60;;;;;;6267899;28;20065;-76
2022/12/27 05:47:28;;;;;;;1.13;0.70;;;19.40;54.80;;;;;;6256295;28;20084;-76
2022/12/27 05:50:28;;;;;;;1.60;1.08;;;19.40;54.80;;;;;;6242821;28;20507;-76
2022/12/27 05:53:29;;;;;;;1.58;0.88;;;19.30;54.70;;;;;;6258789;28;20074;-76
2022/12/27 05:56:30;;;;;;;1.63;0.80;;;19.40;54.80;;;;;;6267516;28;20599;-76
2022/12/27 05:59:30;;;;;;;0.95;0.80;;;19.30;54.70;;;;;;6267680;28;20037;-76
2022/12/27 06:02:31;;;;;;;1.10;0.70;;;19.30;54.70;;;;;;6261565;28;20035;-75
2022/12/27 06:05:32;;;;;;;2.25;1.15;;;19.40;54.80;;;;;;6273505;28;20479;-76
2022/12/27 06:08:33;;;;;;;1.30;0.70;;;19.40;54.80;;;;;;6272208;28;20057;-76
2022/12/27 06:11:34;;;;;;;1.27;0.88;;;19.30;54.70;;;;;;6259927;28;20100;-76
2022/12/27 06:14:35;;;;;;;5.72;0.70;;;19.40;54.80;;;;;;6269749;28;20525;-76
2022/12/27 06:17:35;;;;;;;1.17;0.80;;;19.40;54.80;;;;;;6266719;28;20026;-76
2022/12/27 06:20:36;;;;;;;1.15;0.65;;;19.30;54.70;;;;;;6248473;28;20041;-76
2022/12/27 06:23:38;;;;;;;1.75;0.80;;;19.40;54.80;;;;;;6260517;28;20047;-76
2022/12/27 06:26:41;;;;;;;1.38;0.93;;;19.40;54.80;;;;;;6244951;28;20091;-76
2022/12/27 06:29:41;;;;;;;2.17;0.80;;;19.40;54.70;;;;;;6248650;28;20112;-75
2022/12/27 06:32:42;;;;;;;1.10;0.70;;;19.30;54.60;;;;;;6247338;28;20026;-76
2022/12/27 06:35:42;;;;;;;1.10;0.75;;;19.40;54.60;;;;;;6247068;28;20021;-76
2022/12/27 06:38:43;;;;;;;1.58;0.85;;;19.40;54.60;;;;;;6260369;28;20547;-76
2022/12/27 06:41:44;;;;;;;1.58;0.90;;;19.40;54.70;;;;;;6273018;28;20025;-76
2022/12/27 06:44:45;;;;;;;1.20;0.70;;;19.30;54.60;;;;;;6251969;28;20491;-76
2022/12/27 06:47:46;;;;;;;1.63;0.82;;;19.30;54.70;;;;;;6249396;28;20116;-76
2022/12/27 06:50:46;;;;;;;1.83;0.75;;;19.30;54.60;;;;;;6273094;28;20045;-76
2022/12/27 06:53:47;;;;;;;1.80;0.80;;;19.40;54.60;;;;;;6262500;28;20029;-75
2022/12/27 06:56:48;;;;;;;0.98;0.60;;;19.30;54.60;;;;;;6249079;28;20025;-76
2022/12/27 06:59:49;;;;;;;1.52;0.93;;;19.40;54.60;;;;;;6255455;28;20033;-76
2022/12/27 07:02:49;;;;;;;1.13;0.60;;;19.40;54.60;;;;;;6241430;28;20476;-76
2022/12/27 07:05:51;;;;;;;0.95;0.68;;;19.40;54.50;;;;;;6247882;28;20036;-75
2022/12/27 07:08:52;;;;;;;1.95;0.93;;;19.40;54.60;;;;;;6258206;28;20487;-75
2022/12/27 07:11:53;;;;;;;0.80;0.70;;;19.40;54.60;;;;;;6257914;28;20099;-75
2022/12/27 07:14:53;;;;;;;0.98;0.50;;;19.30;54.50;;;;;;6267052;28;20025;-76
2022/12/27 07:17:54;;;;;;;1.35;0.70;;;19.40;54.60;;;;;;6273340;28;20529;-76
2022/12/27 07:20:54;;;;;;;1.83;0.75;;;19.40;54.60;;;;;;6249111;28;20037;-76
2022/12/27 07:23:56;;;;;;;3.75;0.88;;;19.40;54.50;;;;;;6256102;28;20025;-76
2022/12/27 07:26:58;;;;;;;3.13;0.90;;;19.30;54.50;;;;;;6246317;28;20025;-76
2022/12/27 07:29:59;;;;;;;1.58;0.68;;;19.30;54.30;;;;;;6264112;28;20403;-76
2022/12/27 07:32:59;;;;;;;1.80;0.93;;;19.40;54.50;;;;;;6269835;28;20050;-76
2022/12/27 07:36:00;;;;;;;1.45;0.82;;;19.40;54.50;;;;;;6249038;28;20495;-76
2022/12/27 07:39:01;;;;;;;2.53;0.70;;;19.40;54.60;;;;;;6257360;28;20128;-76
2022/12/27 07:42:02;;;;;;;1.75;0.82;;;19.40;54.40;;;;;;6247441;28;20543;-77
2022/12/27 07:45:02;;;;;;;1.85;0.68;;;19.30;54.50;;;;;;6255733;28;20029;-76
2022/12/27 07:48:03;;;;;;;1.08;0.47;;;19.40;54.50;;;;;;6254969;28;20036;-76
2022/12/27 07:51:05;;;;;;;3.17;0.82;;;19.40;54.60;;;;;;6239826;28;20088;-75
2022/12/27 07:54:05;;;;;;;4.72;0.73;;;19.30;54.50;;;;;;6254259;28;20024;-76
2022/12/27 07:57:07;;;;;;;6.03;1.15;;;19.40;54.60;;;;;;6246782;28;20029;-76
2022/12/27 08:00:08;;;;;;;2.63;0.73;;;19.40;54.50;;;;;;6257170;28;20037;-75
2022/12/27 08:03:09;;;;;;;2.05;0.70;;;19.40;54.60;;;;;;6251859;28;20116;-76
2022/12/27 08:06:30;;;;;;;2.20;0.80;;;19.40;54.50;;;;;;6249999;28;20026;-76
2022/12/27 08:09:34;;;;;;;2.63;0.80;;;19.40;54.60;;;;;;6255850;28;20051;-76
2022/12/27 08:12:35;;;;;;;1.05;0.70;;;19.40;54.60;;;;;;6246425;28;20037;-76
2022/12/27 08:15:37;;;;;;;5.50;0.60;;;19.30;54.60;;;;;;6256514;28;20033;-76
2022/12/27 08:18:38;;;;;;;4.32;0.80;;;19.30;54.60;;;;;;6254433;28;20119;-76
2022/12/27 08:21:38;;;;;;;4.13;0.88;;;19.40;54.60;;;;;;6225032;28;20405;-75
2022/12/27 08:24:40;;;;;;;2.90;1.13;;;19.40;54.60;;;;;;6253380;28;20036;-76
2022/12/27 08:27:41;;;;;;;1.90;0.80;;;19.30;54.60;;;;;;6269637;28;20079;-76
2022/12/27 08:30:43;;;;;;;3.45;0.80;;;19.40;54.60;;;;;;6269117;28;20031;-76
2022/12/27 08:33:43;;;;;;;4.47;0.70;;;19.40;54.70;;;;;;6268575;28;20024;-76
2022/12/27 08:36:44;;;;;;;4.15;0.70;;;19.30;54.60;;;;;;6249335;28;20521;-76
2022/12/27 08:39:44;;;;;;;1.88;0.60;;;19.30;54.60;;;;;;6252003;28;20451;-76
2022/12/27 08:42:45;;;;;;;3.60;0.80;;;19.40;54.70;;;;;;6245379;28;20030;-76
2022/12/27 08:45:46;;;;;;;2.13;0.70;;;19.40;54.70;;;;;;6251946;28;20032;-75
2022/12/27 08:48:47;;;;;;;1.90;0.60;;;19.40;54.70;;;;;;6246452;28;20025;-76
2022/12/27 08:51:48;;;;;;;0.70;0.52;;;19.40;54.80;;;;;;6250235;28;20029;-76
2022/12/27 08:54:49;;;;;;;0.98;0.70;;;19.40;54.70;;;;;;6258402;28;20111;-76
2022/12/27 08:57:50;;;;;;;4.93;0.75;;;19.40;54.70;;;;;;6236378;28;20040;-76
2022/12/27 09:00:50;;;;;;;2.47;0.75;;;19.30;54.60;;;;;;6251318;28;20118;-76
2022/12/27 09:03:51;;;;;;;2.13;0.70;;;19.40;54.70;;;;;;6245681;28;20025;-75
2022/12/27 09:06:52;;;;;;;4.13;0.70;;;19.40;54.70;;;;;;6248585;28;20026;-76
2022/12/27 09:09:52;;;;;;;1.30;0.45;;;19.30;54.60;;;;;;6245800;28;20048;-76
2022/12/27 09:12:53;;;;;;;5.47;0.77;;;19.40;54.70;;;;;;6242125;28;20071;-76
2022/12/27 09:15:53;;;;;;;1.13;0.52;;;19.40;54.70;;;;;;6251807;28;20075;-76
2022/12/27 09:18:58;;;;;;;3.42;0.73;;;19.40;54.70;;;;;;6241085;28;20094;-76
2022/12/27 09:21:59;;;;;;;1.65;0.80;;;19.40;54.80;;;;;;6218718;28;20414;-76
2022/12/27 09:24:59;;;;;;;2.30;0.75;;;19.40;54.70;;;;;;6238824;28;20037;-76
2022/12/27 09:28:00;;;;;;;3.00;0.68;;;19.40;54.80;;;;;;6266590;28;20036;-76
2022/12/27 09:31:42;;;;;;;1.70;0.50;;;19.30;54.60;;;;;;6265232;28;20112;-75
2022/12/27 09:34:42;;;;;;;1.70;0.68;;;19.30;54.60;;;;;;6216984;28;20120;-75
2022/12/27 09:37:43;;;;;;;3.33;0.70;;;19.30;54.70;;;;;;6245065;28;20399;-76
2022/12/27 09:40:53;;;;;;;1.52;0.60;;;19.40;54.80;;;;;;6249156;28;20434;-75
2022/12/27 09:44:02;;;;;;;2.72;0.52;;;19.30;54.70;;;;;;6241787;28;20025;-75
2022/12/27 09:47:21;;;;;;;2.20;0.57;;;19.30;54.70;;;;;;6248258;28;20034;-77
2022/12/27 09:50:29;;;;;;;1.95;0.60;;;19.30;54.70;;;;;;6246360;28;20538;-75
2022/12/27 09:54:03;;;;;;;1.65;0.65;;;19.30;54.80;;;;;;6217923;28;20374;-76
2022/12/27 09:57:26;;;;;;;1.42;0.80;;;19.40;54.80;;;;;;6244241;28;20030;-76
2022/12/27 10:00:27;;;;;;;2.70;0.73;;;19.30;54.80;;;;;;6247719;28;20037;-76
2022/12/27 10:03:29;;;;;;;3.53;0.70;;;19.30;54.80;;;;;;6230211;28;20702;-76
2022/12/27 10:06:45;;;;;;;0.93;0.60;;;19.30;54.80;;;;;;6240986;28;20421;-75
2022/12/27 10:10:08;;;;;;;2.60;0.60;;;19.40;54.80;;;;;;6232552;28;20518;-80
2022/12/27 10:13:21;;;;;;;1.40;0.60;;;19.40;54.90;;;;;;6221288;28;20500;-76
2022/12/27 10:16:27;;;;;;;1.80;0.68;;;19.30;54.80;;;;;;6233535;28;20087;-76
2022/12/27 10:19:33;;;;;;;1.63;0.60;;;19.30;54.90;;;;;;6239941;28;20029;-76
2022/12/27 10:22:43;;;;;;;2.97;0.60;;;19.30;54.80;;;;;;6249655;28;20029;-76
2022/12/27 10:25:45;;;;;;;2.03;0.60;;;19.30;54.80;;;;;;6237482;28;20021;-76
2022/12/27 10:29:00;;;;;;;1.33;0.63;;;19.40;54.90;;;;;;6244105;28;20528;-76
2022/12/27 10:32:01;;;;;;;1.80;0.70;;;19.40;54.90;;;;;;6252049;28;20510;-76
2022/12/27 10:35:03;;;;;;;1.05;0.50;;;19.40;54.90;;;;;;6266757;28;20029;-75
2022/12/27 10:38:09;;;;;;;1.63;0.70;;;19.40;54.90;;;;;;6249856;28;20034;-75
2022/12/27 10:41:31;;;;;;;2.20;0.80;;;19.40;54.90;;;;;;6244112;28;20065;-75
2022/12/27 10:44:31;;;;;;;1.27;0.45;;;19.30;54.90;;;;;;6196291;28;20504;-76
2022/12/27 10:47:32;;;;;;;6.65;0.55;;;19.40;54.90;;;;;;6235723;28;20133;-75
2022/12/27 10:50:32;;;;;;;10.70;0.80;;;19.50;54.90;;;;;;6242574;28;20058;-75
2022/12/27 10:53:44;;;;;;;1.83;0.98;;;19.70;54.50;;;;;;6249637;28;20029;-75
2022/12/27 10:56:45;;;;;;;3.58;1.15;;;19.60;54.10;;;;;;6249597;28;20021;-74
2022/12/27 11:00:22;;;;;;;2.67;0.70;;;19.70;54.30;;;;;;6244428;28;20064;-75
2022/12/27 11:03:25;;;;;;;1.75;0.70;;;19.60;54.30;;;;;;6247927;28;20038;-75
2022/12/27 11:06:25;;;;;;;2.63;0.88;;;19.60;54.30;;;;;;6247707;28;20029;-74
2022/12/27 11:09:32;;;;;;;1.70;0.70;;;19.60;54.30;;;;;;6247702;28;20025;-75
2022/12/27 11:12:32;;;;;;;1.05;0.63;;;19.60;54.30;;;;;;6236632;28;20380;-74
2022/12/27 11:15:40;;;;;;;3.90;0.85;;;19.60;54.30;;;;;;6243831;28;20055;-75
2022/12/27 11:18:47;;;;;;;0.82;0.50;;;19.60;54.30;;;;;;6230257;28;20029;-74
2022/12/27 11:21:48;;;;;;;1.00;0.70;;;19.70;54.30;;;;;;6231703;28;20063;-75
2022/12/27 11:24:50;;;;;;;3.00;0.50;;;19.60;54.30;;;;;;6218688;28;20021;-75
2022/12/27 11:28:02;;;;;;;1.08;0.50;;;19.60;54.20;;;;;;6234048;28;20022;-75
2022/12/27 11:31:08;;;;;;;1.30;0.63;;;19.60;54.30;;;;;;6260329;28;20523;-74
2022/12/27 11:34:35;;;;;;;1.85;0.70;;;19.60;54.20;;;;;;6252869;28;20103;-75
2022/12/27 11:37:39;;;;;;;1.48;0.60;;;19.70;54.60;;;;;;6246951;28;20499;-75
2022/12/27 11:40:39;;;;;;;1.60;0.70;;;19.70;54.30;;;;;;6243078;28;20033;-75
2022/12/27 11:43:48;;;;;;;0.82;0.50;;;19.70;54.20;;;;;;6248667;28;20072;-74
2022/12/27 11:47:09;;;;;;;1.42;0.77;;;19.60;54.10;;;;;;6244672;28;20345;-75
2022/12/27 11:50:38;;;;;;;2.03;0.80;;;19.70;54.40;;;;;;6266703;28;20052;-74
2022/12/27 11:54:08;;;;;;;1.13;0.55;;;19.70;54.20;;;;;;6259194;28;20020;-75
2022/12/27 11:58:02;;;;;;;2.42;0.70;;;19.70;54.20;;;;;;6236294;28;20474;-75
2022/12/27 12:01:35;;;;;;;2.40;0.75;;;19.70;54.20;;;;;;6175366;28;20046;-75
2022/12/27 12:05:23;;;;;;;1.55;0.50;;;19.70;54.90;;;;;;6248124;28;20101;-75
2022/12/27 12:08:37;;;;;;;1.75;0.75;;;19.70;54.20;;;;;;6246888;28;20021;-75
2022/12/27 12:11:53;;;;;;;0.98;0.50;;;19.70;54.30;;;;;;6241818;28;20025;-76
2022/12/27 12:15:00;;;;;;;1.58;0.60;;;19.70;54.40;;;;;;6247682;28;20100;-76
2022/12/27 12:18:09;;;;;;;0.90;0.47;;;19.70;54.40;;;;;;6248132;28;20017;-75
2022/12/27 12:21:25;;;;;;;1.13;0.70;;;19.70;54.40;;;;;;6242266;28;20112;-76
2022/12/27 12:24:50;;;;;;;1.33;0.80;;;19.70;54.40;;;;;;6247451;28;20021;-76
2022/12/27 12:28:07;;;;;;;1.65;0.80;;;19.60;54.40;;;;;;6243565;28;20087;-75
2022/12/27 12:31:47;;;;;;;1.58;0.73;;;19.60;54.50;;;;;;6250751;28;20762;-75
2022/12/27 12:35:00;;;;;;;1.30;0.57;;;19.60;54.50;;;;;;6265184;28;20458;-75
2022/12/27 12:38:10;;;;;;;4.07;0.70;;;19.60;54.60;;;;;;6231318;28;20060;-74
2022/12/27 12:41:29;;;;;;;1.00;0.73;;;19.60;54.60;;;;;;6267545;28;20052;-76
2022/12/27 12:44:59;;;;;;;1.83;0.80;;;19.60;54.60;;;;;;6267428;28;20090;-76
2022/12/27 12:48:03;;;;;;;1.85;0.68;;;19.60;54.70;;;;;;6266973;28;20092;-76
2022/12/27 12:51:21;;;;;;;3.10;0.47;;;19.60;54.70;;;;;;6266275;28;20040;-76
2022/12/27 12:55:02;;;;;;;0.90;0.57;;;19.60;54.70;;;;;;6221989;28;20026;-75
2022/12/27 12:58:31;;;;;;;0.95;0.60;;;19.60;54.70;;;;;;6216009;28;20052;-74
2022/12/27 13:01:43;;;;;;;1.10;0.50;;;19.70;54.60;;;;;;6243622;28;20033;-75
2022/12/27 13:05:02;;;;;;;1.25;0.60;;;19.60;54.50;;;;;;6251172;28;20029;-75
2022/12/27 13:08:05;;;;;;;2.22;0.80;;;19.60;54.50;;;;;;6266352;28;20499;-76
2022/12/27 13:11:12;;;;;;;2.78;0.77;;;19.70;54.60;;;;;;6237084;28;20083;-75
2022/12/27 13:14:41;;;;;;;3.95;0.60;;;19.70;54.50;;;;;;6223896;28;20557;-76
2022/12/27 13:18:24;;;;;;;2.15;0.65;;;19.70;54.50;;;;;;6266665;28;20033;-75
2022/12/27 13:21:41;;;;;;;1.20;0.57;;;19.70;54.30;;;;;;6167943;28;20397;-75
2022/12/27 13:25:05;;;;;;;3.67;0.60;;;19.70;54.40;;;;;;6171761;28;20034;-75
2022/12/27 13:28:29;;;;;;;2.03;0.50;;;19.70;54.40;;;;;;6217418;28;20046;-75
2022/12/27 13:31:38;;;;;;;1.20;0.60;;;19.70;54.40;;;;;;6238039;28;20104;-75
2022/12/27 13:34:38;;;;;;;0.93;0.60;;;19.70;54.20;;;;;;6242653;28;20033;-74
2022/12/27 13:37:57;;;;;;;2.97;1.00;;;19.70;54.40;;;;;;6242533;28;20021;-75
2022/12/27 13:41:23;;;;;;;6.28;1.17;;;19.80;54.50;;;;;;6242832;28;20044;-76
2022/12/27 13:44:38;;;;;;;4.40;0.90;;;19.70;53.60;;;;;;6242905;28;20029;-75
2022/12/27 13:48:03;;;;;;;1.80;0.70;;;19.70;53.70;;;;;;6241192;28;20099;-75
2022/12/27 13:51:16;;;;;;;1.57;0.73;;;19.70;54.10;;;;;;6255119;28;20045;-75
2022/12/27 13:55:01;;;;;;;1.40;0.50;;;19.70;54.20;;;;;;6241766;28;20276;-76
2022/12/27 13:58:35;;;;;;;2.33;0.88;;;19.70;54.20;;;;;;6183669;28;20184;-75
2022/12/27 14:02:07;;;;;;;3.22;0.80;;;19.70;54.30;;;;;;6235831;28;20116;-75
2022/12/27 14:05:16;;;;;;;2.67;0.85;;;19.60;54.30;;;;;;6241621;28;20029;-75
2022/12/27 14:08:35;;;;;;;1.25;0.70;;;19.70;54.60;;;;;;6241000;28;20519;-75
2022/12/27 14:11:57;;;;;;;3.58;0.55;;;19.60;54.50;;;;;;6241791;28;20171;-75
2022/12/27 14:15:01;;;;;;;2.40;0.80;;;19.60;54.50;;;;;;6231997;28;20048;-76
2022/12/27 14:18:13;;;;;;;2.40;0.60;;;19.60;54.50;;;;;;6240607;28;20087;-76
2022/12/27 14:21:41;;;;;;;2.72;1.08;;;19.60;54.50;;;;;;6239255;28;20034;-75
2022/12/27 14:25:00;;;;;;;1.88;0.63;;;19.60;54.40;;;;;;6240487;28;20387;-76
2022/12/27 14:28:14;;;;;;;2.15;0.60;;;19.60;54.40;;;;;;6266389;28;20166;-75
2022/12/27 14:31:17;;;;;;;1.65;1.00;;;19.60;55.20;;;;;;6267230;28;20020;-75
2022/12/27 14:34:24;;;;;;;1.73;0.90;;;19.60;54.40;;;;;;6270828;28;20399;-75
2022/12/27 14:37:56;;;;;;;2.88;1.10;;;19.60;54.50;;;;;;6268590;28;20547;-75
2022/12/27 14:41:24;;;;;;;1.92;1.00;;;19.60;54.50;;;;;;6266585;28;20430;-76
2022/12/27 14:45:02;;;;;;;3.47;1.23;;;19.60;54.40;;;;;;6252142;28;20498;-76
2022/12/27 14:48:03;;;;;;;1.60;0.90;;;19.60;54.50;;;;;;6267394;28;20506;-75
2022/12/27 14:51:12;;;;;;;1.75;1.20;;;19.60;54.60;;;;;;6268038;28;20041;-75
2022/12/27 14:54:21;;;;;;;2.28;1.25;;;19.60;54.60;;;;;;6269882;28;20033;-75
2022/12/27 14:57:41;;;;;;;3.58;1.60;;;19.60;54.70;;;;;;6267548;28;20505;-75
2022/12/27 15:01:20;;;;;;;2.60;1.23;;;19.60;54.70;;;;;;6229827;28;20037;-75
2022/12/27 15:04:43;;;;;;;1.85;1.20;;;19.60;54.70;;;;;;6237989;28;20120;-75
2022/12/27 15:07:57;;;;;;;2.05;1.40;;;19.60;54.70;;;;;;6259577;28;20037;-75
2022/12/27 15:11:23;;;;;;;2.22;1.40;;;19.60;54.80;;;;;;6261639;28;20060;-75
2022/12/27 15:14:56;;;;;;;4.28;2.00;;;19.60;54.80;;;;;;6268751;28;20025;-76
2022/12/27 15:18:48;;;;;;;23.27;10.95;;;19.50;54.70;;;;;;6266469;28;20032;-75
2022/12/27 15:22:18;;;;;;;54.40;31.73;;;19.50;54.60;;;;;;6252099;28;20032;-76
2022/12/27 15:25:25;;;;;;;57.97;35.50;;;19.50;54.70;;;;;;6267900;28;20025;-75
2022/12/27 15:28:49;;;;;;;60.45;36.35;;;19.60;54.80;;;;;;6265749;28;20021;-75
2022/12/27 15:32:03;;;;;;;64.28;40.28;;;19.50;54.70;;;;;;6267458;28;20444;-75
2022/12/27 15:35:09;;;;;;;65.57;40.70;;;19.60;54.80;;;;;;6267922;28;20429;-75
2022/12/27 15:38:17;;;;;;;54.78;34.95;;;19.50;54.70;;;;;;6266337;28;20099;-75
2022/12/27 15:41:45;;;;;;;67.57;42.95;;;19.60;54.80;;;;;;6268547;28;20025;-75
2022/12/27 15:45:15;;;;;;;79.82;49.22;;;19.50;54.70;;;;;;6243960;28;20065;-75
2022/12/27 15:48:54;;;;;;;69.57;42.17;;;19.50;54.60;;;;;;6245424;28;20483;-75
2022/12/27 15:52:17;;;;;;;67.90;43.72;;;19.50;54.60;;;;;;6265003;28;20083;-75
2022/12/27 15:55:36;;;;;;;60.67;38.40;;;19.60;54.70;;;;;;6251078;28;20456;-75
2022/12/27 15:58:37;;;;;;;66.03;40.53;;;19.60;54.80;;;;;;6250265;28;20112;-76
2022/12/27 16:01:38;;;;;;;60.63;38.92;;;19.60;54.80;;;;;;6229076;28;20712;-75
2022/12/27 16:04:50;;;;;;;55.50;36.55;;;19.50;54.60;;;;;;6260592;28;20022;-76
2022/12/27 16:07:57;;;;;;;60.97;35.22;;;19.50;54.70;;;;;;6249421;28;20080;-76
2022/12/27 16:10:59;;;;;;;54.05;34.50;;;19.50;54.70;;;;;;6243300;28;20009;-75
2022/12/27 16:14:25;;;;;;;51.05;32.63;;;19.50;54.60;;;;;;6245001;28;20021;-75
2022/12/27 16:17:52;;;;;;;56.92;33.78;;;19.50;54.70;;;;;;6229540;28;20034;-74
2022/12/27 16:21:05;;;;;;;49.72;32.22;;;19.50;55.30;;;;;;6217847;28;20052;-75
2022/12/27 16:24:19;;;;;;;47.60;31.05;;;19.50;54.70;;;;;;6223442;28;20060;-75
2022/12/27 16:27:29;;;;;;;49.58;32.20;;;19.50;54.70;;;;;;6221870;28;20575;-75
2022/12/27 16:30:51;;;;;;;50.92;31.75;;;19.50;54.50;;;;;;6267162;28;20056;-75
2022/12/27 16:33:54;;;;;;;46.85;30.83;;;19.50;54.60;;;;;;6260673;28;20503;-75
2022/12/27 16:36:58;;;;;;;43.92;28.40;;;19.50;54.60;;;;;;6267278;28;20052;-75
2022/12/27 16:40:30;;;;;;;46.72;29.20;;;19.50;54.60;;;;;;6208136;28;20100;-75
2022/12/27 16:43:57;;;;;;;45.47;29.02;;;19.50;54.60;;;;;;6210430;28;20587;-75
2022/12/27 16:47:32;;;;;;;42.88;27.88;;;19.60;54.60;;;;;;6198113;28;20185;-75
2022/12/27 16:50:55;;;;;;;45.65;28.08;;;19.50;54.60;;;;;;6204627;28;20080;-75
2022/12/27 16:54:21;;;;;;;40.65;26.63;;;19.50;54.60;;;;;;6207303;28;20088;-75
2022/12/27 16:57:25;;;;;;;39.05;26.13;;;19.50;54.70;;;;;;6214652;28;20030;-76
2022/12/27 17:00:46;;;;;;;39.08;25.35;;;19.50;54.60;;;;;;6207891;28;20052;-75
2022/12/27 17:03:48;;;;;;;40.00;25.02;;;19.50;54.70;;;;;;6207413;28;20029;-74
2022/12/27 17:06:55;;;;;;;40.42;25.15;;;19.50;54.50;;;;;;6214868;28;20038;-75
2022/12/27 17:10:18;;;;;;;35.40;24.05;;;19.50;54.60;;;;;;6219724;28;20508;-75
2022/12/27 17:13:49;;;;;;;37.08;23.95;;;19.50;54.50;;;;;;6225051;28;20471;-75
2022/12/27 17:16:57;;;;;;;39.38;25.20;;;19.50;54.60;;;;;;6263265;28;20032;-75
2022/12/27 17:20:11;;;;;;;35.58;23.73;;;19.50;54.60;;;;;;6249130;28;20083;-75
2022/12/27 17:23:12;;;;;;;35.05;22.75;;;19.50;54.50;;;;;;6241914;28;20392;-74
2022/12/27 17:26:15;;;;;;;34.10;22.88;;;19.50;54.70;;;;;;6263003;28;20052;-75
2022/12/27 17:29:47;;;;;;;34.35;22.98;;;19.50;54.60;;;;;;6256597;28;20483;-76
2022/12/27 17:32:56;;;;;;;36.28;22.15;;;19.50;54.60;;;;;;6263647;28;20021;-75
2022/12/27 17:36:13;;;;;;;35.58;22.65;;;19.50;54.60;;;;;;6257917;28;20510;-76
2022/12/27 17:39:46;;;;;;;36.30;21.90;;;19.50;54.50;;;;;;6258035;28;20045;-75
2022/12/27 17:46:20;;;;;;;30.50;20.05;;;19.50;54.60;;;;;;6253137;28;20040;-76
2022/12/27 17:49:29;;;;;;;30.05;20.63;;;19.50;54.50;;;;;;6263286;28;20116;-76
2022/12/27 17:59:34;;;;;;;32.53;20.10;;;19.50;54.60;;;;;;6262043;28;20086;-75
2022/12/27 18:02:37;;;;;;;29.63;19.27;;;19.50;54.50;;;;;;6247423;28;20438;-75
2022/12/27 18:05:43;;;;;;;29.15;18.10;;;19.50;54.70;;;;;;6254077;28;20033;-76
2022/12/27 18:08:47;;;;;;;29.70;19.30;;;19.50;55.30;;;;;;6244676;28;20507;-75
2022/12/27 18:11:48;;;;;;;27.60;18.00;;;19.50;54.50;;;;;;6248956;28;20030;-75